Time;durP1;ratioP1;P1;durP2;ratioP2;P2;SDS_P1;SDS_P2;PMS_P1;PMS_P2;Temp;Humidity;BMP_temperature;BMP_pressure;BME280_temperature;BME280_humidity;BME280_pressure;Samples;Min_cycle;Max_cycle;Signal;HPM_P1;HPM_P2
2020/12/02 00:01:57;;;;;;;35.80;7.68;;;3.30;99.90;;;;;;5090228;28;20024;-44
2020/12/02 00:04:25;;;;;;;28.60;7.15;;;3.30;99.90;;;;;;5106719;28;20120;-44
2020/12/02 00:06:50;;;;;;;28.10;6.97;;;3.20;99.90;;;;;;5112772;28;20023;-44
2020/12/02 00:09:21;;;;;;;30.75;7.18;;;3.30;99.90;;;;;;5112586;28;20488;-45
2020/12/02 00:11:48;;;;;;;34.15;6.90;;;3.20;99.90;;;;;;5112733;28;20019;-43
2020/12/02 00:14:34;;;;;;;27.73;6.50;;;3.30;99.90;;;;;;5101115;28;20028;-44
2020/12/02 00:16:59;;;;;;;39.72;7.05;;;3.30;99.90;;;;;;5105991;28;20118;-45
2020/12/02 00:19:25;;;;;;;24.95;7.18;;;3.40;99.90;;;;;;5112269;28;20731;-44
2020/12/02 00:22:09;;;;;;;25.63;6.70;;;3.40;99.90;;;;;;5112550;28;20110;-44
2020/12/02 00:24:35;;;;;;;24.48;6.65;;;3.50;99.90;;;;;;5112164;28;20139;-44
2020/12/02 00:27:05;;;;;;;30.83;7.05;;;3.60;99.90;;;;;;5111381;28;20038;-45
2020/12/02 00:29:30;;;;;;;36.58;6.50;;;3.80;99.90;;;;;;5099184;28;20035;-45
2020/12/02 00:31:56;;;;;;;28.77;7.57;;;3.80;99.90;;;;;;5091851;28;20024;-44
2020/12/02 00:34:21;;;;;;;35.22;7.35;;;3.80;99.90;;;;;;5106262;28;20051;-44
2020/12/02 00:36:47;;;;;;;29.10;5.80;;;3.90;99.90;;;;;;5111990;28;20047;-44
2020/12/02 00:39:13;;;;;;;29.90;6.78;;;3.90;99.90;;;;;;5112156;28;20048;-44
2020/12/02 00:41:38;;;;;;;29.00;7.40;;;3.90;99.90;;;;;;5112132;28;20039;-44
2020/12/02 00:44:04;;;;;;;36.75;7.68;;;4.00;99.90;;;;;;5103519;27;20070;-44
2020/12/02 00:46:32;;;;;;;27.90;5.82;;;4.00;99.90;;;;;;5101956;28;20043;-44
2020/12/02 00:48:58;;;;;;;21.83;7.45;;;4.00;99.90;;;;;;5112082;28;20081;-44
2020/12/02 00:51:24;;;;;;;20.02;6.57;;;4.10;99.90;;;;;;5111808;28;20028;-44
2020/12/02 00:53:49;;;;;;;22.00;6.85;;;4.10;99.90;;;;;;5111776;28;20106;-44
2020/12/02 00:56:19;;;;;;;25.33;6.38;;;4.00;99.90;;;;;;5111383;28;20055;-44
2020/12/02 00:59:09;;;;;;;32.28;7.40;;;4.00;99.90;;;;;;5106602;28;20043;-44
2020/12/02 01:01:42;;;;;;;22.05;6.45;;;4.00;99.90;;;;;;5090820;28;20036;-45
2020/12/02 01:04:14;;;;;;;38.03;7.65;;;4.00;99.90;;;;;;5115872;27;20031;-45
2020/12/02 01:06:40;;;;;;;24.77;7.15;;;4.00;99.90;;;;;;5131501;27;20030;-45
2020/12/02 01:09:06;;;;;;;33.78;7.85;;;4.00;99.90;;;;;;5131086;27;20031;-44
2020/12/02 01:11:32;;;;;;;32.97;7.45;;;3.90;99.90;;;;;;5131717;27;20435;-44
2020/12/02 01:14:00;;;;;;;29.13;7.22;;;3.90;99.90;;;;;;5122315;27;20051;-44
2020/12/02 01:16:34;;;;;;;25.38;8.20;;;3.90;99.90;;;;;;5100043;28;20058;-44
2020/12/02 01:19:01;;;;;;;45.10;8.25;;;4.00;99.90;;;;;;5110524;28;20044;-45
2020/12/02 01:21:38;;;;;;;31.05;7.55;;;4.00;99.90;;;;;;5108813;28;20380;-44
2020/12/02 01:24:10;;;;;;;37.00;8.23;;;3.90;99.90;;;;;;5110978;28;20045;-44
2020/12/02 01:26:42;;;;;;;33.22;8.38;;;4.00;99.90;;;;;;5110588;28;20480;-44
2020/12/02 01:29:15;;;;;;;22.52;6.55;;;3.90;99.90;;;;;;5106789;28;20035;-45
2020/12/02 01:31:44;;;;;;;;;;;3.90;99.90;;;;;;5091467;28;20073;-44
2020/12/02 01:34:10;;;;;;;32.05;8.10;;;3.90;99.90;;;;;;5103106;28;19912;-44
2020/12/02 01:36:55;;;;;;;32.28;8.75;;;3.90;99.90;;;;;;5110827;28;20493;-44
2020/12/02 01:39:21;;;;;;;30.23;8.50;;;3.90;99.90;;;;;;5110970;28;20048;-44
2020/12/02 01:41:48;;;;;;;33.22;9.07;;;3.90;99.90;;;;;;5110749;28;20024;-44
2020/12/02 01:44:14;;;;;;;25.67;9.07;;;3.90;99.90;;;;;;5106428;28;20040;-44
2020/12/02 01:46:55;;;;;;;28.23;8.27;;;3.90;99.90;;;;;;5101609;28;20039;-44
2020/12/02 01:49:39;;;;;;;28.15;7.45;;;3.80;99.90;;;;;;5110817;28;20035;-44
2020/12/02 01:52:32;;;;;;;28.02;7.63;;;3.90;99.90;;;;;;5110662;28;20034;-44
2020/12/02 01:55:01;;;;;;;22.55;7.80;;;3.90;99.90;;;;;;5106729;28;20039;-44
2020/12/02 01:57:37;;;;;;;25.88;8.00;;;3.90;99.90;;;;;;5109684;28;20130;-43
2020/12/02 02:00:12;;;;;;;36.00;8.32;;;4.00;99.90;;;;;;5099595;28;20149;-44
2020/12/02 02:03:13;;;;;;;30.92;7.97;;;4.00;99.90;;;;;;5089077;28;20039;-44
2020/12/02 02:05:59;;;;;;;28.67;7.38;;;4.00;99.90;;;;;;5091526;28;20027;-45
2020/12/02 02:08:30;;;;;;;28.67;8.00;;;4.00;99.90;;;;;;5109238;28;20520;-44
2020/12/02 02:10:59;;;;;;;29.88;7.20;;;4.00;99.90;;;;;;5109246;28;20064;-44
2020/12/02 02:13:31;;;;;;;36.42;7.68;;;4.00;99.90;;;;;;5108614;28;20038;-46
2020/12/02 02:16:00;;;;;;;33.83;8.02;;;4.00;99.90;;;;;;5098856;28;20030;-44
2020/12/02 02:18:29;;;;;;;30.30;7.93;;;3.90;99.90;;;;;;5109670;28;20040;-44
2020/12/02 02:21:23;;;;;;;27.65;8.50;;;4.00;99.90;;;;;;5109917;28;20035;-44
2020/12/02 02:23:49;;;;;;;33.15;7.53;;;4.00;99.90;;;;;;5106938;28;20035;-44
2020/12/02 02:26:15;;;;;;;20.50;7.80;;;3.90;99.90;;;;;;5109789;28;20068;-44
2020/12/02 02:29:06;;;;;;;22.42;7.50;;;3.90;99.90;;;;;;5108598;28;20096;-44
2020/12/02 02:31:37;;;;;;;32.53;9.27;;;3.90;99.90;;;;;;5067554;28;20039;-44
2020/12/02 02:34:03;;;;;;;30.08;8.27;;;3.90;99.90;;;;;;5090190;28;20028;-44
2020/12/02 02:36:29;;;;;;;28.20;8.65;;;3.80;99.90;;;;;;5099588;28;20055;-44
2020/12/02 02:38:56;;;;;;;28.55;7.93;;;3.80;99.90;;;;;;5110371;28;20138;-44
2020/12/02 02:41:26;;;;;;;19.73;7.75;;;3.80;99.90;;;;;;5109829;28;20059;-44
2020/12/02 02:43:51;;;;;;;24.08;8.65;;;3.80;99.90;;;;;;5110549;28;20050;-45
2020/12/02 02:46:17;;;;;;;26.90;8.00;;;3.70;99.90;;;;;;5093610;28;20482;-44
2020/12/02 02:48:43;;;;;;;22.25;7.82;;;3.70;99.90;;;;;;5090539;28;20032;-44
2020/12/02 02:51:08;;;;;;;33.97;8.60;;;3.70;99.90;;;;;;5089881;28;20331;-44
2020/12/02 02:53:34;;;;;;;35.08;8.82;;;3.60;99.90;;;;;;5090392;28;20028;-44
2020/12/02 02:56:00;;;;;;;26.73;9.02;;;3.60;99.90;;;;;;5090584;28;20420;-46
2020/12/02 02:58:27;;;;;;;31.38;9.23;;;3.60;99.90;;;;;;5090402;28;20586;-44
2020/12/02 03:00:55;;;;;;;28.20;9.65;;;3.50;99.90;;;;;;5090288;28;20027;-44
2020/12/02 03:03:21;;;;;;;24.58;7.55;;;3.50;99.90;;;;;;5090440;28;20032;-45
2020/12/02 03:05:48;;;;;;;23.75;8.95;;;3.60;99.90;;;;;;5090290;28;20039;-44
2020/12/02 03:08:15;;;;;;;28.13;8.85;;;3.60;99.90;;;;;;5090439;28;20044;-44
2020/12/02 03:10:43;;;;;;;23.92;7.85;;;3.50;99.90;;;;;;5090216;28;20039;-44
2020/12/02 03:13:30;;;;;;;30.60;9.25;;;3.50;99.90;;;;;;5090404;28;20036;-44
2020/12/02 03:15:57;;;;;;;22.13;8.32;;;3.60;99.90;;;;;;5090207;28;20043;-44
2020/12/02 03:18:24;;;;;;;30.30;9.15;;;3.50;99.90;;;;;;5088208;28;20090;-44
2020/12/02 03:21:03;;;;;;;39.00;9.88;;;3.40;99.90;;;;;;5106398;28;20152;-45
2020/12/02 03:23:29;;;;;;;31.05;9.73;;;3.40;99.90;;;;;;5109375;28;20112;-44
2020/12/02 03:25:55;;;;;;;25.42;8.55;;;3.50;99.90;;;;;;5109734;28;20082;-44
2020/12/02 03:28:28;;;;;;;17.70;7.93;;;3.40;99.90;;;;;;5110527;28;20477;-45
2020/12/02 03:30:58;;;;;;;26.80;7.32;;;3.50;99.90;;;;;;5110495;28;20028;-44
2020/12/02 03:33:24;;;;;;;23.13;8.75;;;3.40;99.90;;;;;;5110316;28;20028;-44
2020/12/02 03:35:50;;;;;;;28.85;9.80;;;3.40;99.90;;;;;;5112605;28;20030;-44
2020/12/02 03:38:15;;;;;;;25.02;7.88;;;3.50;99.90;;;;;;5113736;28;20083;-44
2020/12/02 03:40:42;;;;;;;30.08;9.75;;;3.40;99.90;;;;;;5113324;28;20069;-45
2020/12/02 03:43:08;;;;;;;28.98;8.60;;;3.40;99.90;;;;;;5112727;28;20032;-44
2020/12/02 03:45:40;;;;;;;24.77;8.68;;;3.40;99.90;;;;;;5112963;28;20744;-44
2020/12/02 03:48:07;;;;;;;27.73;8.55;;;3.40;99.90;;;;;;5112891;28;20031;-44
2020/12/02 03:50:33;;;;;;;22.48;7.47;;;3.40;99.90;;;;;;5112701;28;20035;-44
2020/12/02 03:52:59;;;;;;;26.63;9.65;;;3.40;99.90;;;;;;5113311;28;20027;-44
2020/12/02 03:55:24;;;;;;;26.77;8.32;;;3.50;99.90;;;;;;5114166;28;20028;-44
2020/12/02 03:57:50;;;;;;;27.35;8.57;;;3.40;99.90;;;;;;5114155;28;20046;-44
2020/12/02 04:00:15;;;;;;;23.60;8.02;;;3.40;99.90;;;;;;5113542;28;20107;-44
2020/12/02 04:02:41;;;;;;;31.60;9.32;;;3.50;99.90;;;;;;5113805;28;20111;-44
2020/12/02 04:05:07;;;;;;;37.10;9.13;;;3.50;99.90;;;;;;5112573;28;20035;-44
2020/12/02 04:07:33;;;;;;;29.05;9.00;;;3.50;99.90;;;;;;5113765;28;20028;-44
2020/12/02 04:09:59;;;;;;;41.08;9.68;;;3.50;99.90;;;;;;5113478;28;20381;-43
2020/12/02 04:12:25;;;;;;;25.67;8.02;;;3.50;99.90;;;;;;5113473;28;20032;-44
2020/12/02 04:14:50;;;;;;;29.83;9.15;;;3.50;99.90;;;;;;5113215;28;20490;-44
2020/12/02 04:17:16;;;;;;;28.67;8.52;;;3.50;99.90;;;;;;5113440;28;20493;-44
2020/12/02 04:19:42;;;;;;;37.15;9.30;;;3.40;99.90;;;;;;5113421;28;20040;-45
2020/12/02 04:22:07;;;;;;;33.17;8.63;;;3.40;99.90;;;;;;5113618;28;20034;-44
2020/12/02 04:24:33;;;;;;;26.75;8.63;;;3.30;99.90;;;;;;5113225;28;20502;-44
2020/12/02 04:26:58;;;;;;;25.33;9.20;;;3.30;99.90;;;;;;5112727;28;20515;-45
2020/12/02 04:29:24;;;;;;;29.67;8.82;;;3.30;99.90;;;;;;5113137;28;20039;-44
2020/12/02 04:31:50;;;;;;;42.90;9.50;;;3.30;99.90;;;;;;5113395;28;20031;-44
2020/12/02 04:34:16;;;;;;;25.00;8.77;;;3.20;99.90;;;;;;5112925;28;20027;-44
2020/12/02 04:36:49;;;;;;;43.67;9.07;;;3.20;99.90;;;;;;5112858;28;20500;-44
2020/12/02 04:39:17;;;;;;;27.85;9.13;;;3.20;99.90;;;;;;5112154;28;20039;-44
2020/12/02 04:41:43;;;;;;;38.30;9.57;;;3.10;99.90;;;;;;5111633;28;20035;-44
2020/12/02 04:44:11;;;;;;;27.20;8.93;;;3.20;99.90;;;;;;5111559;28;20073;-44
2020/12/02 04:46:37;;;;;;;33.13;9.60;;;3.20;99.90;;;;;;5111617;28;20032;-44
2020/12/02 04:49:18;;;;;;;28.00;8.65;;;3.10;99.90;;;;;;5111849;28;20084;-44
2020/12/02 04:51:45;;;;;;;24.83;8.40;;;3.10;99.90;;;;;;5112772;28;20031;-44
2020/12/02 04:54:11;;;;;;;39.72;9.57;;;3.10;99.90;;;;;;5113158;28;20107;-44
2020/12/02 04:56:43;;;;;;;29.00;9.70;;;3.10;99.90;;;;;;5112442;28;20102;-44
2020/12/02 04:59:09;;;;;;;35.78;9.90;;;3.10;99.90;;;;;;5112696;28;20031;-44
2020/12/02 05:01:50;;;;;;;38.83;9.23;;;3.10;99.90;;;;;;5112404;28;20373;-44
2020/12/02 05:04:17;;;;;;;34.22;9.50;;;3.10;99.90;;;;;;5112667;28;20366;-44
2020/12/02 05:07:04;;;;;;;29.25;9.38;;;3.10;99.90;;;;;;5112249;28;20473;-44
2020/12/02 05:09:32;;;;;;;30.10;9.40;;;3.10;99.90;;;;;;5112716;28;20114;-44
2020/12/02 05:12:05;;;;;;;35.95;9.40;;;3.10;99.90;;;;;;5112476;28;20031;-44
2020/12/02 05:14:34;;;;;;;;;;;3.10;99.90;;;;;;5112803;28;20031;-44
2020/12/02 05:17:05;;;;;;;29.63;9.45;;;3.00;99.90;;;;;;5112130;28;20285;-44
2020/12/02 05:19:30;;;;;;;30.13;10.13;;;3.00;99.90;;;;;;5111776;28;20044;-43
2020/12/02 05:22:05;;;;;;;23.30;9.02;;;3.00;99.90;;;;;;5112189;28;20039;-44
2020/12/02 05:24:48;;;;;;;39.22;10.05;;;3.00;99.90;;;;;;5112244;28;20027;-44
2020/12/02 05:27:27;;;;;;;19.02;7.07;;;3.00;99.90;;;;;;5111934;28;20112;-44
2020/12/02 05:30:21;;;;;;;32.30;8.85;;;2.90;99.90;;;;;;5111538;28;20051;-44
2020/12/02 05:33:12;;;;;;;43.63;9.40;;;2.80;99.90;;;;;;5111557;28;20035;-44
2020/12/02 05:35:44;;;;;;;27.35;9.00;;;2.80;99.90;;;;;;5111754;28;20055;-44
2020/12/02 05:38:13;;;;;;;24.17;7.85;;;2.80;99.90;;;;;;5111414;28;20059;-44
2020/12/02 05:40:38;;;;;;;27.67;8.82;;;2.80;99.90;;;;;;5111956;28;20042;-44
2020/12/02 05:43:20;;;;;;;24.30;8.48;;;2.90;99.90;;;;;;5111596;28;20031;-44
2020/12/02 05:45:48;;;;;;;42.38;8.70;;;2.90;99.90;;;;;;5111809;28;20102;-44
2020/12/02 05:48:22;;;;;;;27.83;9.88;;;2.90;99.90;;;;;;5097301;27;20032;-44
2020/12/02 05:50:48;;;;;;;35.72;9.57;;;2.90;99.90;;;;;;5090832;28;20447;-44
2020/12/02 05:53:27;;;;;;;40.88;9.10;;;2.90;99.90;;;;;;5090853;28;20020;-44
2020/12/02 05:55:54;;;;;;;28.27;9.88;;;3.00;99.90;;;;;;5090592;28;20803;-44
2020/12/02 05:58:29;;;;;;;43.63;12.75;;;3.00;99.90;;;;;;5103059;28;20035;-44
2020/12/02 06:00:55;;;;;;;26.80;9.43;;;3.00;99.90;;;;;;5110573;28;20032;-44
2020/12/02 06:03:32;;;;;;;27.90;10.68;;;3.00;99.90;;;;;;5090615;27;20042;-44
2020/12/02 06:06:03;;;;;;;31.25;10.10;;;3.00;99.90;;;;;;5089904;28;20024;-43
2020/12/02 06:08:40;;;;;;;29.42;10.95;;;2.90;99.90;;;;;;5104066;28;20032;-43
2020/12/02 06:11:15;;;;;;;22.92;10.50;;;2.90;99.90;;;;;;5109917;28;20059;-43
2020/12/02 06:13:45;;;;;;;35.15;11.50;;;2.90;99.90;;;;;;5109543;28;20027;-43
2020/12/02 06:16:15;;;;;;;36.28;10.80;;;2.90;99.90;;;;;;5109807;28;20031;-43
2020/12/02 06:18:41;;;;;;;40.97;11.23;;;2.90;99.90;;;;;;5096116;28;20681;-44
2020/12/02 06:21:19;;;;;;;43.67;11.32;;;2.90;99.90;;;;;;5089455;28;20122;-43
2020/12/02 06:23:50;;;;;;;32.15;11.48;;;2.80;99.90;;;;;;5105386;28;20084;-44
2020/12/02 06:26:43;;;;;;;33.13;11.82;;;2.70;99.90;;;;;;5109930;28;20028;-44
2020/12/02 06:29:32;;;;;;;41.42;12.52;;;2.70;99.90;;;;;;5102331;28;20488;-44
2020/12/02 06:32:02;;;;;;;39.08;13.05;;;2.80;99.90;;;;;;5095608;27;20720;-44
2020/12/02 06:34:31;;;;;;;38.90;12.82;;;2.80;99.90;;;;;;5100329;27;20050;-43
2020/12/02 06:37:22;;;;;;;36.85;11.50;;;2.80;99.90;;;;;;5092080;28;20197;-44
2020/12/02 06:39:54;;;;;;;40.00;12.07;;;2.80;99.90;;;;;;5082475;28;20040;-43
2020/12/02 06:42:41;;;;;;;33.28;13.30;;;2.80;99.90;;;;;;5094615;28;20483;-43
2020/12/02 06:45:25;;;;;;;48.35;12.25;;;2.80;99.90;;;;;;5096740;28;20587;-43
2020/12/02 06:47:50;;;;;;;;;;;2.80;99.90;;;;;;5100452;28;20119;-44
2020/12/02 06:50:22;;;;;;;29.65;12.18;;;2.80;99.90;;;;;;5097725;28;19996;-43
2020/12/02 06:52:49;;;;;;;26.03;8.60;;;2.80;99.90;;;;;;5094401;28;20035;-44
2020/12/02 06:55:22;;;;;;;42.17;12.23;;;2.90;99.90;;;;;;5094597;28;20103;-43
2020/12/02 06:57:58;;;;;;;37.85;11.10;;;3.00;99.90;;;;;;5104333;28;20385;-44
2020/12/02 07:00:28;;;;;;;33.20;11.23;;;3.00;99.90;;;;;;5091970;28;20020;-43
2020/12/02 07:02:54;;;;;;;33.05;11.30;;;3.00;99.90;;;;;;5101585;28;20076;-45
2020/12/02 07:05:23;;;;;;;34.30;11.30;;;3.10;99.90;;;;;;5104104;28;20043;-44
2020/12/02 07:08:00;;;;;;;33.22;10.55;;;3.10;99.90;;;;;;5112104;28;20031;-43
2020/12/02 07:10:26;;;;;;;39.80;12.02;;;3.10;99.90;;;;;;5099943;28;20036;-44
2020/12/02 07:12:54;;;;;;;25.88;11.88;;;3.20;99.90;;;;;;5106878;27;20053;-44
2020/12/02 07:15:22;;;;;;;42.95;12.20;;;3.20;99.90;;;;;;5098187;27;20024;-43
2020/12/02 07:17:48;;;;;;;39.72;12.27;;;3.30;99.90;;;;;;5095287;27;20036;-44
2020/12/02 07:20:17;;;;;;;37.72;12.38;;;3.30;99.90;;;;;;5096939;27;20390;-44
2020/12/02 07:22:51;;;;;;;37.15;12.65;;;3.20;99.90;;;;;;5095702;28;20142;-43
2020/12/02 07:25:17;;;;;;;38.42;12.30;;;3.20;99.90;;;;;;5088003;28;20165;-44
2020/12/02 07:27:45;;;;;;;43.67;12.75;;;3.20;99.90;;;;;;5093132;28;20027;-44
2020/12/02 07:30:33;;;;;;;40.30;12.32;;;3.20;99.90;;;;;;5090978;28;20029;-45
2020/12/02 07:33:21;;;;;;;39.28;12.45;;;3.30;99.90;;;;;;5091453;27;20031;-43
2020/12/02 07:36:01;;;;;;;38.00;13.43;;;3.30;99.90;;;;;;5096106;28;20031;-44
2020/12/02 07:38:27;;;;;;;27.23;11.60;;;3.40;99.90;;;;;;5067661;27;20417;-44
2020/12/02 07:40:52;;;;;;;33.53;12.90;;;3.40;99.90;;;;;;5093116;27;20225;-45
2020/12/02 07:43:27;;;;;;;37.65;14.13;;;3.40;99.90;;;;;;5099066;28;20491;-46
2020/12/02 07:45:57;;;;;;;43.60;13.40;;;3.40;99.90;;;;;;5096850;28;20039;-46
2020/12/02 07:48:26;;;;;;;37.95;13.15;;;3.40;99.90;;;;;;5099516;27;20034;-44
2020/12/02 07:51:41;;;;;;;39.65;12.65;;;3.40;99.90;;;;;;5108120;28;20051;-44
2020/12/02 07:54:18;;;;;;;43.22;12.85;;;3.50;99.90;;;;;;5106878;27;20063;-43
2020/12/02 07:56:47;;;;;;;30.60;11.95;;;3.50;99.90;;;;;;5103645;28;20026;-44
2020/12/02 07:59:18;;;;;;;29.83;11.18;;;3.50;99.90;;;;;;5110778;27;20654;-43
2020/12/02 08:02:03;;;;;;;32.72;11.75;;;3.60;99.90;;;;;;5106962;27;20035;-43
2020/12/02 08:04:37;;;;;;;37.13;12.10;;;3.60;99.90;;;;;;5102814;27;20024;-43
2020/12/02 08:07:05;;;;;;;48.67;13.18;;;3.60;99.90;;;;;;5097227;27;20036;-44
2020/12/02 08:09:39;;;;;;;33.58;12.02;;;3.70;99.90;;;;;;5093512;27;20050;-43
2020/12/02 08:12:18;;;;;;;30.48;10.85;;;3.80;99.90;;;;;;5091017;27;20047;-44
2020/12/02 08:14:57;;;;;;;36.60;11.63;;;3.80;99.90;;;;;;5098998;28;20508;-44
2020/12/02 08:17:25;;;;;;;34.22;11.00;;;3.90;99.90;;;;;;5091307;28;20027;-44
2020/12/02 08:19:54;;;;;;;23.77;10.23;;;3.80;99.90;;;;;;5094776;27;20130;-44
2020/12/02 08:22:38;;;;;;;39.28;11.57;;;3.80;99.90;;;;;;5095632;27;20028;-44
2020/12/02 08:25:32;;;;;;;36.30;10.82;;;3.80;99.90;;;;;;5095502;27;20436;-44
2020/12/02 08:28:00;;;;;;;23.92;10.35;;;3.80;99.90;;;;;;5095829;27;20039;-44
2020/12/02 08:30:29;;;;;;;28.40;9.40;;;3.90;99.90;;;;;;5096238;27;20058;-43
2020/12/02 08:32:57;;;;;;;30.75;10.05;;;3.90;99.90;;;;;;5097206;27;20031;-44
2020/12/02 08:35:27;;;;;;;38.30;10.88;;;4.00;99.90;;;;;;5104578;27;20031;-44
2020/12/02 08:37:59;;;;;;;30.50;9.57;;;4.10;99.90;;;;;;5111177;27;20061;-45
2020/12/02 08:40:38;;;;;;;36.38;9.00;;;4.20;99.90;;;;;;5112630;27;20047;-46
2020/12/02 08:43:22;;;;;;;28.58;9.52;;;4.20;99.90;;;;;;5103091;28;20046;-44
2020/12/02 08:46:06;;;;;;;28.13;8.88;;;4.20;99.90;;;;;;5105567;28;20053;-43
2020/12/02 08:48:36;;;;;;;34.72;9.48;;;4.40;99.90;;;;;;5096144;27;20078;-44
2020/12/02 08:51:07;;;;;;;32.25;8.38;;;4.50;99.90;;;;;;5092177;27;20581;-44
2020/12/02 08:53:33;;;;;;;27.60;9.43;;;4.50;99.90;;;;;;5094777;27;20036;-45
2020/12/02 08:55:59;;;;;;;31.52;9.45;;;4.60;99.90;;;;;;5093957;27;20101;-44
2020/12/02 08:58:25;;;;;;;32.08;10.52;;;4.70;99.90;;;;;;5094866;27;20134;-43
2020/12/02 09:00:51;;;;;;;33.78;9.30;;;4.90;99.90;;;;;;5103692;28;20138;-43
2020/12/02 09:03:22;;;;;;;50.53;9.68;;;4.90;99.90;;;;;;5113047;27;20438;-44
2020/12/02 09:05:47;;;;;;;28.35;7.85;;;5.10;99.90;;;;;;5110311;27;20101;-43
2020/12/02 09:08:13;;;;;;;27.80;9.35;;;5.20;99.90;;;;;;5110034;27;20504;-43
2020/12/02 09:10:39;;;;;;;26.85;8.48;;;5.40;99.90;;;;;;5109403;28;20042;-44
2020/12/02 09:13:04;;;;;;;24.38;8.63;;;5.60;99.90;;;;;;5109291;27;20404;-43
2020/12/02 09:15:31;;;;;;;27.50;7.43;;;5.80;99.90;;;;;;5096912;28;20028;-44
2020/12/02 09:17:57;;;;;;;24.90;7.82;;;5.90;99.90;;;;;;5097802;28;20030;-43
2020/12/02 09:20:24;;;;;;;26.20;7.50;;;6.00;99.90;;;;;;5099065;27;20048;-44
2020/12/02 09:22:51;;;;;;;25.58;7.63;;;6.10;99.90;;;;;;5102959;27;20027;-43
2020/12/02 09:25:18;;;;;;;23.05;8.45;;;6.20;99.90;;;;;;5103101;27;20122;-43
2020/12/02 09:27:44;;;;;;;27.17;8.07;;;6.30;99.90;;;;;;5104097;27;20035;-44
2020/12/02 09:30:13;;;;;;;22.67;7.65;;;6.30;99.90;;;;;;5108686;28;20118;-43
2020/12/02 09:32:39;;;;;;;34.47;7.95;;;6.30;99.90;;;;;;5108771;28;20111;-43
2020/12/02 09:35:07;;;;;;;23.40;7.82;;;6.20;99.90;;;;;;5102817;27;20148;-43
2020/12/02 09:37:34;;;;;;;32.35;7.15;;;6.30;99.90;;;;;;5101046;28;20058;-43
2020/12/02 09:40:01;;;;;;;31.77;8.40;;;6.20;99.90;;;;;;5103819;28;20082;-44
2020/12/02 09:43:02;;;;;;;22.42;7.78;;;6.20;99.90;;;;;;5100241;28;20470;-43
2020/12/02 09:45:50;;;;;;;36.55;9.57;;;6.20;99.90;;;;;;5090197;28;20420;-43
2020/12/02 09:48:19;;;;;;;25.05;7.07;;;6.20;99.90;;;;;;5088218;28;20370;-43
2020/12/02 09:50:49;;;;;;;29.77;7.40;;;6.10;99.90;;;;;;5097497;28;20036;-44
2020/12/02 09:53:24;;;;;;;30.55;7.45;;;6.20;99.90;;;;;;5117712;27;20426;-43
2020/12/02 09:55:50;;;;;;;34.35;7.90;;;6.20;99.90;;;;;;5122134;27;20063;-43
2020/12/02 09:58:17;;;;;;;20.27;5.95;;;6.20;99.90;;;;;;5099869;28;20095;-43
2020/12/02 10:00:43;;;;;;;35.20;6.72;;;6.20;99.90;;;;;;5101202;28;20035;-43
2020/12/02 10:03:32;;;;;;;29.25;6.43;;;6.20;99.90;;;;;;5098808;28;20092;-44
2020/12/02 10:06:27;;;;;;;25.88;6.47;;;6.20;99.90;;;;;;5098320;27;20096;-44
2020/12/02 10:09:12;;;;;;;21.70;5.70;;;6.20;99.90;;;;;;5107426;28;20381;-43
2020/12/02 10:11:51;;;;;;;36.85;6.38;;;6.20;99.90;;;;;;5100635;28;20028;-43
2020/12/02 10:15:01;;;;;;;27.63;6.43;;;6.30;99.90;;;;;;5106817;28;20035;-44
2020/12/02 10:17:58;;;;;;;25.40;5.60;;;6.20;99.90;;;;;;5108595;28;20038;-43
2020/12/02 10:20:38;;;;;;;27.23;5.70;;;6.30;99.90;;;;;;5104043;27;20078;-43
2020/12/02 10:23:19;;;;;;;23.15;5.45;;;6.20;99.90;;;;;;5098330;28;20436;-43
2020/12/02 10:26:04;;;;;;;29.98;6.32;;;6.20;99.90;;;;;;5100837;28;20027;-44
2020/12/02 10:28:57;;;;;;;27.30;6.20;;;6.30;99.90;;;;;;5102565;28;20036;-44
2020/12/02 10:31:25;;;;;;;38.05;6.97;;;6.30;99.90;;;;;;5104309;27;20114;-44
2020/12/02 10:34:02;;;;;;;31.33;5.38;;;6.40;99.90;;;;;;5105481;28;20031;-43
2020/12/02 10:36:35;;;;;;;27.58;5.15;;;6.30;99.90;;;;;;5104070;28;20059;-44
2020/12/02 10:39:06;;;;;;;21.60;4.97;;;6.20;99.90;;;;;;5106564;28;20225;-44
2020/12/02 10:41:52;;;;;;;31.25;7.85;;;6.20;99.90;;;;;;5107841;28;20036;-44
2020/12/02 10:44:29;;;;;;;31.17;4.80;;;6.20;99.90;;;;;;5108630;28;20039;-44
2020/12/02 10:47:32;;;;;;;37.78;5.95;;;6.30;99.90;;;;;;5097196;28;20043;-44
2020/12/02 10:49:59;;;;;;;38.00;5.60;;;6.40;99.90;;;;;;5096963;28;20081;-45
2020/12/02 10:52:25;;;;;;;20.63;4.80;;;6.30;99.90;;;;;;5103920;28;20493;-44
2020/12/02 10:54:51;;;;;;;25.42;4.90;;;6.30;99.90;;;;;;5107853;28;20036;-43
2020/12/02 10:57:25;;;;;;;34.90;6.05;;;6.30;99.90;;;;;;5102720;28;20036;-44
2020/12/02 10:59:53;;;;;;;15.38;4.65;;;6.40;99.90;;;;;;5108798;28;20143;-44
2020/12/02 11:02:27;;;;;;;21.15;5.00;;;6.40;99.90;;;;;;5102513;28;20107;-45
2020/12/02 11:04:54;;;;;;;27.38;5.55;;;6.50;99.90;;;;;;5088041;28;20123;-46
2020/12/02 11:07:41;;;;;;;30.40;5.65;;;6.40;99.90;;;;;;5089395;28;20034;-44
2020/12/02 11:10:12;;;;;;;46.13;6.32;;;6.40;99.90;;;;;;5098528;28;20130;-44
2020/12/02 11:12:43;;;;;;;30.27;6.15;;;6.40;99.90;;;;;;5095837;28;20443;-44
2020/12/02 11:15:18;;;;;;;24.45;4.80;;;6.40;99.90;;;;;;5094207;28;20039;-44
2020/12/02 11:17:46;;;;;;;23.65;5.15;;;6.40;99.90;;;;;;5096716;28;20092;-45
2020/12/02 11:20:19;;;;;;;31.45;6.13;;;6.50;99.90;;;;;;5100399;28;20036;-45
2020/12/02 11:23:05;;;;;;;30.75;5.78;;;6.60;99.90;;;;;;5093224;28;20092;-44
2020/12/02 11:25:51;;;;;;;36.20;5.53;;;6.60;99.90;;;;;;5100949;28;20032;-43
2020/12/02 11:28:17;;;;;;;25.13;4.97;;;6.60;99.90;;;;;;5091017;28;20046;-43
2020/12/02 11:30:44;;;;;;;27.30;5.35;;;6.70;99.90;;;;;;5087680;28;20028;-44
2020/12/02 11:33:36;;;;;;;29.98;5.80;;;6.70;99.90;;;;;;5096210;28;20085;-44
2020/12/02 11:36:20;;;;;;;28.08;4.97;;;6.70;99.90;;;;;;5092809;28;20039;-45
2020/12/02 11:39:14;;;;;;;28.27;5.22;;;6.70;99.90;;;;;;5106697;28;20490;-45
2020/12/02 11:42:09;;;;;;;26.98;5.78;;;6.70;99.90;;;;;;5107522;28;20057;-44
2020/12/02 11:44:46;;;;;;;33.05;4.82;;;6.80;99.90;;;;;;5097883;28;20035;-45
2020/12/02 11:47:17;;;;;;;27.08;5.05;;;6.80;99.90;;;;;;5107254;28;20039;-45
2020/12/02 11:49:52;;;;;;;25.02;5.38;;;6.80;99.90;;;;;;5107854;28;20036;-45
2020/12/02 11:52:31;;;;;;;27.63;5.43;;;6.80;99.90;;;;;;5100300;28;20027;-45
2020/12/02 11:54:57;;;;;;;31.92;6.13;;;6.80;99.90;;;;;;5095246;28;20115;-45
2020/12/02 11:57:23;;;;;;;43.35;6.13;;;6.90;99.90;;;;;;5101413;28;20173;-45
2020/12/02 11:59:49;;;;;;;21.52;5.85;;;6.90;99.90;;;;;;5108187;28;20096;-45
2020/12/02 12:02:29;;;;;;;25.13;6.03;;;7.00;99.90;;;;;;5110698;27;20036;-45
2020/12/02 12:05:20;;;;;;;23.85;6.32;;;7.00;99.90;;;;;;5108515;27;20119;-45
2020/12/02 12:08:17;;;;;;;21.60;6.32;;;7.10;99.90;;;;;;5099633;27;20112;-44
2020/12/02 12:10:51;;;;;;;25.98;5.43;;;7.20;99.90;;;;;;5098838;28;20079;-45
2020/12/02 12:13:29;;;;;;;24.00;6.00;;;7.30;99.90;;;;;;5109186;28;20024;-45
2020/12/02 12:16:18;;;;;;;34.55;6.25;;;7.20;99.90;;;;;;5111346;28;20480;-45
2020/12/02 12:18:58;;;;;;;32.20;6.43;;;7.30;99.90;;;;;;5111032;28;20046;-44
2020/12/02 12:21:41;;;;;;;49.95;6.40;;;7.50;99.90;;;;;;5105957;28;20089;-45
2020/12/02 12:24:11;;;;;;;37.17;5.88;;;7.60;99.90;;;;;;5108365;28;20041;-44
2020/12/02 12:26:43;;;;;;;33.20;5.10;;;7.80;99.90;;;;;;5099594;27;20039;-44
2020/12/02 12:29:11;;;;;;;25.95;5.00;;;7.90;99.90;;;;;;5116803;27;20024;-45
2020/12/02 12:31:42;;;;;;;27.73;4.10;;;7.90;99.90;;;;;;5106156;27;20456;-44
2020/12/02 12:34:39;;;;;;;29.10;4.25;;;7.90;99.90;;;;;;5105108;28;20451;-46
2020/12/02 12:37:18;;;;;;;33.47;5.25;;;8.10;99.90;;;;;;5098460;28;20638;-45
2020/12/02 12:39:50;;;;;;;31.42;4.07;;;8.10;99.90;;;;;;5096012;27;20492;-44
2020/12/02 12:42:21;;;;;;;27.92;4.00;;;8.20;99.90;;;;;;5092374;27;20079;-45
2020/12/02 12:44:47;;;;;;;29.42;4.18;;;8.30;99.90;;;;;;5104846;28;20535;-45
2020/12/02 12:47:27;;;;;;;31.52;4.35;;;8.30;99.90;;;;;;5093518;28;20035;-44
2020/12/02 12:49:55;;;;;;;29.08;4.10;;;8.30;99.90;;;;;;5103729;28;20434;-45
2020/12/02 12:52:25;;;;;;;22.73;3.53;;;8.50;99.90;;;;;;5102332;27;20032;-45
2020/12/02 12:54:51;;;;;;;26.27;4.85;;;8.50;99.90;;;;;;5110330;28;20058;-46
2020/12/02 12:57:21;;;;;;;24.10;4.32;;;8.50;99.90;;;;;;5111002;27;20103;-45
2020/12/02 12:59:46;;;;;;;20.98;4.35;;;8.40;99.90;;;;;;5092829;28;20059;-44
2020/12/02 13:02:23;;;;;;;34.67;4.35;;;8.30;99.90;;;;;;5091890;28;20035;-45
2020/12/02 13:04:49;;;;;;;29.40;4.70;;;8.30;99.90;;;;;;5111642;28;20034;-44
2020/12/02 13:07:33;;;;;;;37.38;4.43;;;8.30;99.90;;;;;;5100265;28;20035;-45
2020/12/02 13:10:24;;;;;;;32.13;3.78;;;8.30;99.90;;;;;;5100145;27;20118;-44
2020/12/02 13:12:52;;;;;;;27.42;4.03;;;8.40;99.90;;;;;;5094694;28;20454;-44
2020/12/02 13:15:53;;;;;;;18.45;3.22;;;8.30;99.90;;;;;;5098867;28;20137;-45